createdAt,value
2018-07-06T00:02:36.448Z,1.20
2018-07-06T00:05:16.053Z,1.40
2018-07-06T00:07:55.533Z,1.33
2018-07-06T00:10:35.277Z,1.37
2018-07-06T00:13:14.756Z,1.50
2018-07-06T00:15:54.564Z,1.80
2018-07-06T00:18:34.172Z,1.67
2018-07-06T00:21:13.865Z,1.30
2018-07-06T00:23:53.448Z,1.77
2018-07-06T00:26:33.054Z,2.23
2018-07-06T00:29:12.769Z,1.40
2018-07-06T00:31:52.361Z,1.43
2018-07-06T00:34:31.916Z,1.40
2018-07-06T00:37:11.413Z,1.90
2018-07-06T00:39:50.759Z,1.93
2018-07-06T00:42:30.309Z,2.77
2018-07-06T00:45:10.121Z,2.07
2018-07-06T00:47:49.824Z,1.53
2018-07-06T00:50:29.421Z,1.60
2018-07-06T00:53:09.353Z,2.10
2018-07-06T00:55:49.016Z,2.07
2018-07-06T00:58:28.615Z,1.97
2018-07-06T01:01:08.086Z,1.87
2018-07-06T01:03:47.747Z,1.80
2018-07-06T01:06:27.420Z,1.93
2018-07-06T01:09:06.903Z,1.93
2018-07-06T01:11:46.430Z,1.70
2018-07-06T01:14:26.372Z,2.97
2018-07-06T01:17:10.157Z,2.20
2018-07-06T01:19:49.821Z,2.10
2018-07-06T01:22:29.594Z,2.20
2018-07-06T01:25:09.268Z,2.03
2018-07-06T01:27:48.887Z,1.93
2018-07-06T01:30:32.589Z,3.07
2018-07-06T01:33:12.163Z,1.90
2018-07-06T01:35:45.572Z,2.50
2018-07-06T01:38:19.008Z,2.53
2018-07-06T01:40:58.408Z,2.60
2018-07-06T01:43:40.049Z,2.40
2018-07-06T01:46:19.800Z,2.70
2018-07-06T01:48:59.317Z,3.50
2018-07-06T01:51:38.835Z,3.63
2018-07-06T01:54:18.276Z,2.60
2018-07-06T01:56:58.580Z,2.07
2018-07-06T01:59:38.172Z,2.50
2018-07-06T02:02:17.772Z,2.50
2018-07-06T02:04:57.297Z,2.70
2018-07-06T02:07:37.200Z,2.73
2018-07-06T02:10:16.770Z,2.43
2018-07-06T02:12:56.312Z,3.47
2018-07-06T02:15:35.820Z,3.27
2018-07-06T02:18:15.448Z,3.60
2018-07-06T02:20:55.193Z,3.43
2018-07-06T02:23:34.759Z,2.40
2018-07-06T02:26:14.341Z,2.20
2018-07-06T02:28:54.873Z,2.47
2018-07-06T02:31:36.665Z,2.80
2018-07-06T02:34:16.233Z,3.20
2018-07-06T02:36:55.877Z,4.00
2018-07-06T02:39:35.760Z,4.50
2018-07-06T02:42:15.336Z,4.87
2018-07-06T02:44:54.952Z,3.63
2018-07-06T02:47:34.457Z,3.37
2018-07-06T02:50:14.085Z,3.93
2018-07-06T02:52:53.543Z,2.67
2018-07-06T02:55:33.183Z,4.50
2018-07-06T02:58:12.721Z,3.57
2018-07-06T03:00:52.249Z,2.87
2018-07-06T03:03:34.112Z,3.40
2018-07-06T03:06:13.657Z,3.77
2018-07-06T03:08:53.205Z,5.17
2018-07-06T03:11:32.788Z,4.53
2018-07-06T03:14:12.402Z,3.43
2018-07-06T03:16:52.016Z,4.07
2018-07-06T03:19:35.278Z,4.73
2018-07-06T03:22:15.128Z,5.70
2018-07-06T03:24:54.917Z,6.77
2018-07-06T03:27:34.420Z,3.73
2018-07-06T03:30:14.029Z,6.33
2018-07-06T03:32:54.373Z,4.13
2018-07-06T03:35:33.868Z,3.97
2018-07-06T03:38:13.410Z,5.60
2018-07-06T03:40:53.117Z,5.20
2018-07-06T03:43:32.793Z,4.97
2018-07-06T03:46:12.441Z,4.50
2018-07-06T03:48:51.952Z,4.83
2018-07-06T03:51:31.469Z,4.30
2018-07-06T03:54:11.106Z,4.73
2018-07-06T03:56:50.704Z,4.17
2018-07-06T03:59:30.399Z,5.87
2018-07-06T04:02:10.082Z,5.40
2018-07-06T04:04:49.692Z,4.67
2018-07-06T04:07:34.385Z,5.47
2018-07-06T04:10:14.301Z,7.97
2018-07-06T04:12:53.602Z,4.87
2018-07-06T04:15:33.244Z,5.57
2018-07-06T04:18:12.619Z,5.33
2018-07-06T04:20:53.272Z,5.77
2018-07-06T04:23:32.870Z,7.87
2018-07-06T04:26:12.568Z,5.20
2018-07-06T04:28:51.976Z,6.00
2018-07-06T04:31:31.705Z,5.50
2018-07-06T04:34:11.761Z,5.20
2018-07-06T04:36:51.705Z,5.37
2018-07-06T04:39:31.245Z,5.07
2018-07-06T04:42:11.720Z,4.60
2018-07-06T04:44:51.145Z,5.00
2018-07-06T04:47:30.630Z,5.80
2018-07-06T04:50:10.249Z,5.30
2018-07-06T04:52:51.233Z,4.37
2018-07-06T04:55:30.735Z,5.03
2018-07-06T04:58:10.403Z,8.53
2018-07-06T05:00:50.283Z,5.03
2018-07-06T05:03:29.780Z,4.87
2018-07-06T05:06:09.356Z,4.47
2018-07-06T05:08:48.884Z,5.17
2018-07-06T05:11:28.340Z,4.97
2018-07-06T05:14:07.990Z,5.70
2018-07-06T05:16:47.696Z,5.93
2018-07-06T05:19:27.188Z,5.83
2018-07-06T05:22:06.596Z,6.00
2018-07-06T05:24:47.180Z,5.33
2018-07-06T05:27:27.113Z,6.23
2018-07-06T05:30:06.564Z,5.33
2018-07-06T05:32:46.275Z,5.90
2018-07-06T05:35:25.979Z,5.67
2018-07-06T05:38:05.489Z,5.20
2018-07-06T05:40:44.947Z,5.50
2018-07-06T05:43:24.364Z,5.10
2018-07-06T05:46:03.885Z,4.30
2018-07-06T05:48:43.453Z,4.50
2018-07-06T05:51:23.196Z,3.60
2018-07-06T05:54:02.580Z,3.67
2018-07-06T05:56:42.297Z,3.37
2018-07-06T05:59:22.027Z,3.23
2018-07-06T06:02:01.788Z,3.70
2018-07-06T06:04:41.314Z,3.47
2018-07-06T06:07:22.037Z,2.90
2018-07-06T06:09:50.505Z,2.83
2018-07-06T06:12:20.492Z,3.13
2018-07-06T06:14:49.357Z,2.70
2018-07-06T06:17:17.731Z,2.50
2018-07-06T06:19:46.148Z,2.43
2018-07-06T06:22:14.637Z,3.00
2018-07-06T06:24:43.154Z,2.70
2018-07-06T06:27:11.598Z,3.20
2018-07-06T06:29:40.044Z,2.97
2018-07-06T06:32:09.455Z,3.10
2018-07-06T06:34:37.880Z,3.40
2018-07-06T06:37:06.588Z,2.80
2018-07-06T06:39:35.278Z,2.40
2018-07-06T06:42:03.840Z,2.80
2018-07-06T06:44:32.608Z,2.30
2018-07-06T06:47:01.358Z,2.67
2018-07-06T06:49:31.312Z,2.33
2018-07-06T06:52:00.537Z,2.53
2018-07-06T06:54:29.541Z,3.00
2018-07-06T06:56:58.044Z,3.37
2018-07-06T06:59:26.576Z,2.90
2018-07-06T07:01:55.028Z,2.57
2018-07-06T07:04:23.568Z,2.93
2018-07-06T07:06:52.248Z,2.13
2018-07-06T07:09:20.798Z,2.73
2018-07-06T07:11:49.236Z,2.77
2018-07-06T07:14:17.895Z,2.60
2018-07-06T07:16:46.440Z,2.60
2018-07-06T07:19:15.097Z,3.00
2018-07-06T07:21:43.808Z,3.27
2018-07-06T07:24:12.353Z,3.00
2018-07-06T07:26:40.898Z,2.83
2018-07-06T07:29:09.318Z,2.37
2018-07-06T07:31:37.956Z,3.53
2018-07-06T07:34:06.681Z,3.43
2018-07-06T07:36:35.158Z,2.83
2018-07-06T07:39:04.608Z,2.80
2018-07-06T07:41:33.215Z,3.27
2018-07-06T07:44:01.743Z,3.83
2018-07-06T07:46:30.277Z,2.77
2018-07-06T07:48:58.733Z,2.83
2018-07-06T07:52:07.724Z,2.90
2018-07-06T07:54:44.100Z,3.60
2018-07-06T07:57:12.496Z,3.40
2018-07-06T07:59:41.284Z,2.80
2018-07-06T08:02:10.181Z,3.03
2018-07-06T08:04:38.656Z,2.70
2018-07-06T08:07:07.114Z,3.03
2018-07-06T08:09:36.176Z,2.90
2018-07-06T08:12:06.764Z,2.83
2018-07-06T08:14:35.218Z,2.60
2018-07-06T08:17:03.724Z,3.27
2018-07-06T08:19:32.158Z,2.93
2018-07-06T08:22:00.612Z,3.50
2018-07-06T08:24:29.117Z,3.00
2018-07-06T08:26:59.692Z,2.90
2018-07-06T08:29:28.187Z,3.77
2018-07-06T08:31:56.749Z,2.93
2018-07-06T08:34:36.293Z,3.07
2018-07-06T08:37:45.171Z,3.50
2018-07-06T08:40:14.861Z,4.13
2018-07-06T08:42:44.732Z,3.20
2018-07-06T08:45:14.140Z,3.47
2018-07-06T08:47:43.240Z,4.20
2018-07-06T08:50:11.777Z,2.90
2018-07-06T08:52:40.922Z,2.93
2018-07-06T08:55:09.447Z,3.97
2018-07-06T08:57:38.908Z,3.27
2018-07-06T09:00:08.705Z,3.30
2018-07-06T09:02:37.156Z,3.20
2018-07-06T09:05:06.458Z,3.20
2018-07-06T09:07:34.932Z,4.40
2018-07-06T09:10:03.676Z,2.90
2018-07-06T09:12:32.180Z,2.63
2018-07-06T09:15:01.441Z,3.50
2018-07-06T09:17:29.932Z,3.63
2018-07-06T09:19:59.435Z,4.00
2018-07-06T09:22:27.630Z,3.27
2018-07-06T09:24:58.261Z,2.80
2018-07-06T09:27:26.709Z,3.20
2018-07-06T09:29:55.314Z,3.17
2018-07-06T09:32:23.858Z,4.10
2018-07-06T09:34:52.396Z,3.90
2018-07-06T09:37:20.969Z,3.13
2018-07-06T09:39:50.190Z,3.90
2018-07-06T09:42:18.976Z,3.43
2018-07-06T09:44:47.434Z,3.60
2018-07-06T09:47:16.054Z,3.30
2018-07-06T09:49:44.574Z,3.73
2018-07-06T09:52:13.107Z,4.00
2018-07-06T09:54:41.613Z,3.40
2018-07-06T09:57:10.157Z,3.20
2018-07-06T09:59:38.560Z,3.57
2018-07-06T10:02:07.149Z,3.87
2018-07-06T10:04:35.807Z,3.47
2018-07-06T10:07:04.396Z,4.00
2018-07-06T10:09:32.861Z,2.87
2018-07-06T10:12:05.028Z,3.23
2018-07-06T10:14:33.456Z,3.60
2018-07-06T10:17:01.988Z,2.93
2018-07-06T10:19:30.579Z,3.83
2018-07-06T10:21:59.120Z,3.37
2018-07-06T10:24:27.568Z,3.20
2018-07-06T10:26:56.048Z,3.10
2018-07-06T10:29:33.085Z,2.53
2018-07-06T10:32:27.825Z,3.40
2018-07-06T10:34:57.073Z,2.77
2018-07-06T10:37:26.046Z,2.60
2018-07-06T10:39:54.716Z,2.47
2018-07-06T10:42:23.210Z,1.60
2018-07-06T10:44:51.780Z,2.10
2018-07-06T10:47:20.192Z,3.00
2018-07-06T10:49:48.894Z,2.40
2018-07-06T10:52:18.091Z,3.13
2018-07-06T10:54:47.061Z,2.57
2018-07-06T10:57:15.607Z,2.20
2018-07-06T10:59:44.143Z,2.20
2018-07-06T11:02:12.613Z,2.57
2018-07-06T11:04:41.044Z,2.40
2018-07-06T11:07:09.484Z,2.53
2018-07-06T11:09:37.964Z,2.00
2018-07-06T11:12:06.516Z,2.10
2018-07-06T11:14:34.940Z,2.27
2018-07-06T11:17:03.688Z,2.03
2018-07-06T11:19:32.069Z,2.23
2018-07-06T11:22:00.666Z,2.20
2018-07-06T11:24:29.288Z,2.23
2018-07-06T11:26:57.691Z,2.10
2018-07-06T11:29:26.137Z,2.30
2018-07-06T11:31:54.604Z,1.50
2018-07-06T11:34:23.053Z,1.67
2018-07-06T11:36:51.515Z,1.93
2018-07-06T11:39:19.936Z,1.67
2018-07-06T11:41:48.361Z,1.73
2018-07-06T11:44:16.644Z,2.23
2018-07-06T11:46:45.072Z,1.77
2018-07-06T11:49:13.465Z,1.40
2018-07-06T11:51:41.892Z,1.73
2018-07-06T11:54:10.331Z,1.60
2018-07-06T11:56:39.057Z,1.80
2018-07-06T11:59:07.513Z,1.80
2018-07-06T12:01:36.888Z,1.60
2018-07-06T12:04:05.460Z,1.57
2018-07-06T12:06:33.837Z,1.50
2018-07-06T12:09:02.810Z,1.60
2018-07-06T12:11:31.284Z,1.13
2018-07-06T12:14:00.814Z,1.30
2018-07-06T12:16:29.293Z,1.40
2018-07-06T12:18:57.772Z,1.93
2018-07-06T12:21:26.291Z,1.40
2018-07-06T12:23:54.717Z,1.50
2018-07-06T12:26:23.188Z,1.37
2018-07-06T12:28:51.770Z,1.33
2018-07-06T12:31:20.234Z,1.47
2018-07-06T12:33:48.641Z,1.02
2018-07-06T12:36:17.176Z,1.53
2018-07-06T12:38:45.994Z,1.12
2018-07-06T12:41:14.561Z,1.15
2018-07-06T12:43:42.950Z,1.05
2018-07-06T12:46:11.365Z,1.10
2018-07-06T12:48:39.792Z,1.25
2018-07-06T12:51:08.264Z,1.37
2018-07-06T12:53:36.704Z,1.47
2018-07-06T12:56:05.172Z,0.90
2018-07-06T12:58:33.723Z,1.30
2018-07-06T13:01:02.201Z,1.00
2018-07-06T13:03:30.620Z,1.30
2018-07-06T13:06:00.168Z,0.85
2018-07-06T13:08:28.608Z,1.00
2018-07-06T13:10:57.189Z,1.62
2018-07-06T13:13:25.788Z,0.95
2018-07-06T13:15:54.213Z,1.30
2018-07-06T13:18:22.651Z,0.80
2018-07-06T13:20:51.144Z,0.90
2018-07-06T13:23:19.736Z,1.75
2018-07-06T13:25:48.204Z,0.90
2018-07-06T13:28:16.640Z,1.10
2018-07-06T13:30:45.138Z,0.82
2018-07-06T13:33:13.652Z,0.98
2018-07-06T13:35:42.505Z,0.75
2018-07-06T13:38:10.976Z,1.47
2018-07-06T13:40:39.432Z,0.82
2018-07-06T13:43:07.909Z,0.88
2018-07-06T13:45:36.440Z,1.00
2018-07-06T13:48:04.944Z,0.98
2018-07-06T13:50:33.419Z,1.37
2018-07-06T13:53:01.868Z,1.00
2018-07-06T13:55:30.391Z,0.90
2018-07-06T13:57:58.864Z,1.27
2018-07-06T14:00:27.324Z,1.30
2018-07-06T14:02:55.720Z,1.40
2018-07-06T14:05:24.111Z,1.00
2018-07-06T14:07:52.664Z,0.90
2018-07-06T14:10:21.156Z,1.40
2018-07-06T14:12:49.678Z,1.15
2018-07-06T14:15:18.108Z,0.93
2018-07-06T14:17:46.569Z,0.82
2018-07-06T14:20:17.193Z,1.20
2018-07-06T14:22:45.616Z,1.00
2018-07-06T14:25:14.088Z,0.80
2018-07-06T14:27:42.760Z,1.10
2018-07-06T14:30:11.202Z,1.15
2018-07-06T14:32:39.588Z,0.72
2018-07-06T14:35:08.111Z,1.07
2018-07-06T14:37:36.480Z,1.35
2018-07-06T14:40:05.024Z,1.17
2018-07-06T14:42:33.440Z,0.80
2018-07-06T14:45:01.897Z,0.88
2018-07-06T14:47:31.348Z,1.00
2018-07-06T14:49:59.773Z,1.17
2018-07-06T14:52:28.253Z,0.85
2018-07-06T14:54:56.825Z,1.20
2018-07-06T14:57:25.317Z,0.88
2018-07-06T14:59:53.742Z,1.10
2018-07-06T15:02:22.432Z,1.07
2018-07-06T15:04:50.818Z,0.80
2018-07-06T15:07:19.196Z,1.00
2018-07-06T15:09:47.658Z,1.15
2018-07-06T15:12:16.184Z,1.20
2018-07-06T15:14:44.644Z,1.15
2018-07-06T15:17:13.132Z,0.72
2018-07-06T15:19:41.631Z,1.32
2018-07-06T15:22:10.083Z,0.82
2018-07-06T15:24:38.524Z,0.90
2018-07-06T15:27:08.104Z,0.82
2018-07-06T15:29:36.593Z,1.10
2018-07-06T15:32:05.128Z,0.88
2018-07-06T15:34:37.288Z,1.00
2018-07-06T15:37:06.040Z,1.22
2018-07-06T15:39:34.596Z,1.00
2018-07-06T15:42:03.108Z,0.70
2018-07-06T15:44:31.667Z,0.82
2018-07-06T15:47:00.152Z,1.32
2018-07-06T15:49:28.521Z,0.75
2018-07-06T15:51:56.979Z,1.10
2018-07-06T15:54:25.528Z,0.90
2018-07-06T15:56:53.953Z,0.93
2018-07-06T15:59:22.294Z,1.07
2018-07-06T16:01:50.268Z,1.10
2018-07-06T16:04:18.455Z,0.78
2018-07-06T16:06:47.788Z,1.12
2018-07-06T16:09:15.719Z,0.90
2018-07-06T16:11:43.936Z,1.05
2018-07-06T16:14:12.238Z,1.27
2018-07-06T16:16:40.638Z,1.02
2018-07-06T16:19:08.927Z,1.07
2018-07-06T16:21:37.380Z,1.02
2018-07-06T16:24:06.032Z,1.02
2018-07-06T16:26:34.355Z,0.80
2018-07-06T16:29:07.537Z,0.98
2018-07-06T16:31:35.882Z,1.10
2018-07-06T16:34:04.285Z,0.95
2018-07-06T16:36:32.781Z,0.98
2018-07-06T16:39:00.836Z,0.90
2018-07-06T16:41:30.498Z,1.22
2018-07-06T16:44:01.119Z,1.37
2018-07-06T16:46:29.526Z,0.60
2018-07-06T16:48:58.029Z,0.98
2018-07-06T16:51:26.456Z,0.90
2018-07-06T16:53:55.034Z,1.02
2018-07-06T16:56:23.589Z,0.98
2018-07-06T16:58:52.144Z,0.60
2018-07-06T17:01:20.567Z,0.93
2018-07-06T17:03:48.984Z,0.90
2018-07-06T17:06:17.912Z,1.37
2018-07-06T17:08:46.389Z,1.57
2018-07-06T17:11:14.884Z,1.25
2018-07-06T17:13:43.392Z,1.00
2018-07-06T17:16:11.901Z,0.93
2018-07-06T17:18:40.383Z,1.15
2018-07-06T17:21:10.165Z,1.17
2018-07-06T17:23:38.718Z,1.30
2018-07-06T17:26:07.370Z,1.35
2018-07-06T17:28:37.221Z,1.20
2018-07-06T17:31:06.804Z,1.17
2018-07-06T17:33:35.258Z,1.37
2018-07-06T17:36:03.696Z,1.25
2018-07-06T17:38:33.187Z,0.90
2018-07-06T17:41:01.721Z,1.20
2018-07-06T17:43:30.207Z,0.98
2018-07-06T17:45:58.759Z,1.02
2018-07-06T17:48:27.329Z,1.07
2018-07-06T17:50:56.845Z,1.65
2018-07-06T17:53:25.397Z,1.35
2018-07-06T17:55:53.958Z,1.20
2018-07-06T17:58:22.378Z,1.17
2018-07-06T18:00:50.952Z,1.22
2018-07-06T18:03:19.046Z,0.95
2018-07-06T18:05:47.429Z,0.90
2018-07-06T18:08:20.677Z,1.47
2018-07-06T18:10:49.150Z,0.90
2018-07-06T18:13:17.624Z,1.90
2018-07-06T18:15:46.051Z,0.90
2018-07-06T18:18:14.589Z,1.47
2018-07-06T18:20:42.960Z,1.05
2018-07-06T18:23:11.627Z,1.10
2018-07-06T18:25:47.984Z,1.30
2018-07-06T18:28:16.386Z,1.37
2018-07-06T18:30:45.006Z,1.53
2018-07-06T18:33:13.474Z,1.00
2018-07-06T18:35:41.953Z,1.50
2018-07-06T18:38:10.409Z,1.17
2018-07-06T18:40:38.885Z,0.80
2018-07-06T18:43:07.556Z,0.90
2018-07-06T18:45:37.032Z,1.10
2018-07-06T18:48:05.747Z,1.10
2018-07-06T18:50:35.193Z,0.93
2018-07-06T18:53:03.665Z,1.40
2018-07-06T18:55:33.566Z,1.00
2018-07-06T18:58:02.065Z,1.20
2018-07-06T19:00:30.610Z,1.37
2018-07-06T19:02:59.309Z,1.30
2018-07-06T19:05:27.721Z,1.33
2018-07-06T19:07:57.005Z,1.43
2018-07-06T19:10:25.580Z,1.17
2018-07-06T19:12:54.208Z,1.63
2018-07-06T19:15:22.608Z,1.70
2018-07-06T19:17:51.085Z,1.17
2018-07-06T19:20:19.495Z,1.30
2018-07-06T19:22:50.220Z,1.20
2018-07-06T19:25:18.701Z,2.03
2018-07-06T19:27:47.207Z,1.10
2018-07-06T19:30:15.686Z,1.23
2018-07-06T19:32:49.164Z,0.77
2018-07-06T19:35:17.641Z,1.60
2018-07-06T19:37:46.135Z,1.13
2018-07-06T19:40:14.556Z,1.03
2018-07-06T19:42:42.954Z,1.53
2018-07-06T19:45:11.596Z,1.03
2018-07-06T19:47:40.054Z,1.40
2018-07-06T19:50:08.523Z,1.00
2018-07-06T19:52:37.017Z,1.33
2018-07-06T19:55:05.892Z,1.37
2018-07-06T19:57:34.423Z,1.00
2018-07-06T20:00:02.746Z,1.30
2018-07-06T20:02:31.245Z,2.03
2018-07-06T20:04:59.737Z,1.40
2018-07-06T20:07:29.897Z,1.40
2018-07-06T20:09:58.249Z,1.03
2018-07-06T20:12:26.620Z,1.60
2018-07-06T20:14:54.993Z,2.23
2018-07-06T20:17:23.472Z,1.37
2018-07-06T20:19:51.915Z,1.13
2018-07-06T20:22:20.448Z,1.20
2018-07-06T20:24:48.953Z,0.90
2018-07-06T20:27:17.439Z,1.40
2018-07-06T20:29:49.137Z,2.00
2018-07-06T20:32:17.670Z,2.50
2018-07-06T20:34:46.148Z,1.23
2018-07-06T20:37:14.593Z,1.80
2018-07-06T20:39:43.009Z,1.20
2018-07-06T20:42:11.408Z,1.53
2018-07-06T20:44:39.972Z,1.40
2018-07-06T20:47:10.526Z,1.33
2018-07-06T20:49:39.083Z,1.17
2018-07-06T20:52:07.596Z,1.60
2018-07-06T20:54:36.061Z,1.40
2018-07-06T20:57:04.676Z,1.23
2018-07-06T20:59:32.770Z,1.33
2018-07-06T21:02:04.564Z,1.37
2018-07-06T21:04:33.162Z,1.43
2018-07-06T21:07:02.019Z,0.93
2018-07-06T21:09:30.492Z,1.50
2018-07-06T21:11:59.043Z,1.87
2018-07-06T21:14:27.536Z,1.53
2018-07-06T21:16:55.983Z,1.53
2018-07-06T21:19:24.456Z,1.60
2018-07-06T21:21:52.877Z,1.87
2018-07-06T21:24:21.357Z,1.90
2018-07-06T21:26:49.833Z,1.20
2018-07-06T21:29:18.292Z,1.17
2018-07-06T21:31:46.718Z,1.47
2018-07-06T21:34:15.345Z,1.17
2018-07-06T21:36:43.897Z,1.50
2018-07-06T21:39:12.428Z,1.23
2018-07-06T21:41:40.793Z,1.13
2018-07-06T21:44:09.236Z,1.80
2018-07-06T21:46:37.664Z,1.07
2018-07-06T21:49:06.221Z,1.30
2018-07-06T21:51:34.797Z,1.77
2018-07-06T21:54:03.260Z,1.37
2018-07-06T21:56:38.883Z,1.40
2018-07-06T21:59:07.296Z,1.30
2018-07-06T22:01:35.756Z,1.00
2018-07-06T22:04:04.236Z,1.07
2018-07-06T22:06:36.856Z,1.20
2018-07-06T22:09:06.758Z,1.47
2018-07-06T22:11:35.237Z,1.50
2018-07-06T22:14:03.910Z,1.07
2018-07-06T22:16:32.555Z,0.97
2018-07-06T22:19:01.261Z,1.07
2018-07-06T22:21:29.709Z,0.97
2018-07-06T22:23:58.116Z,1.07
2018-07-06T22:26:26.813Z,1.50
2018-07-06T22:28:55.266Z,1.30
2018-07-06T22:31:23.954Z,1.40
2018-07-06T22:33:52.508Z,1.03
2018-07-06T22:36:21.080Z,1.20
2018-07-06T22:38:50.585Z,1.37
2018-07-06T22:41:19.016Z,1.00
2018-07-06T22:43:47.566Z,1.00
2018-07-06T22:46:16.114Z,1.20
2018-07-06T22:48:44.642Z,1.77
2018-07-06T22:51:14.568Z,1.33
2018-07-06T22:53:43.110Z,1.40
2018-07-06T22:56:11.533Z,1.30
2018-07-06T22:58:40.259Z,1.17
2018-07-06T23:01:08.941Z,1.50
2018-07-06T23:03:37.613Z,1.33
2018-07-06T23:06:05.912Z,1.00
2018-07-06T23:08:35.248Z,1.00
2018-07-06T23:11:03.615Z,1.33
2018-07-06T23:13:32.158Z,1.17
2018-07-06T23:16:00.686Z,1.00
2018-07-06T23:18:29.056Z,1.10
2018-07-06T23:20:58.001Z,1.13
2018-07-06T23:23:26.477Z,1.10
2018-07-06T23:25:55.037Z,1.20
2018-07-06T23:28:23.683Z,1.00
2018-07-06T23:30:52.113Z,1.23
2018-07-06T23:33:20.677Z,1.13
2018-07-06T23:35:49.225Z,1.23
2018-07-06T23:38:17.807Z,1.03
2018-07-06T23:40:46.806Z,1.43
2018-07-06T23:43:15.289Z,1.40
2018-07-06T23:45:43.760Z,1.07
2018-07-06T23:48:12.260Z,1.10
2018-07-06T23:50:52.840Z,1.50
2018-07-06T23:53:21.314Z,1.40
2018-07-06T23:55:49.844Z,1.20
2018-07-06T23:58:18.428Z,1.30
